sensor_id;sensor_type;location;lat;lon;timestamp;pressure;altitude;pressure_sealevel;temperature;humidity
1832;BME280;1680;48.106;11.708;2023-07-20T00:02:04;95294.69;;;23.03;52.04
1832;BME280;1680;48.106;11.708;2023-07-20T00:04:33;95303.13;;;22.96;52.82
1832;BME280;1680;48.106;11.708;2023-07-20T00:07:00;95301.00;;;22.85;53.94
1832;BME280;1680;48.106;11.708;2023-07-20T00:09:28;95291.16;;;22.94;51.86
1832;BME280;1680;48.106;11.708;2023-07-20T00:11:56;95290.19;;;22.90;52.78
1832;BME280;1680;48.106;11.708;2023-07-20T00:14:25;95292.25;;;22.93;52.21
1832;BME280;1680;48.106;11.708;2023-07-20T00:16:54;95300.78;;;22.95;52.61
1832;BME280;1680;48.106;11.708;2023-07-20T00:19:23;95296.69;;;22.97;51.34
1832;BME280;1680;48.106;11.708;2023-07-20T00:21:50;95302.34;;;22.74;52.86
1832;BME280;1680;48.106;11.708;2023-07-20T00:24:17;95291.44;;;22.84;52.04
1832;BME280;1680;48.106;11.708;2023-07-20T00:26:45;95244.19;;;22.57;52.83
1832;BME280;1680;48.106;11.708;2023-07-20T00:29:13;95292.63;;;22.78;52.28
1832;BME280;1680;48.106;11.708;2023-07-20T00:31:41;95298.81;;;22.65;52.75
1832;BME280;1680;48.106;11.708;2023-07-20T00:34:09;95305.03;;;22.74;53.27
1832;BME280;1680;48.106;11.708;2023-07-20T00:36:36;95311.69;;;22.63;53.62
1832;BME280;1680;48.106;11.708;2023-07-20T00:39:03;95318.31;;;22.65;53.13
1832;BME280;1680;48.106;11.708;2023-07-20T00:41:31;95312.94;;;22.44;53.86
1832;BME280;1680;48.106;11.708;2023-07-20T00:43:58;95307.69;;;22.52;53.56
1832;BME280;1680;48.106;11.708;2023-07-20T00:46:27;95301.09;;;22.36;52.79
1832;BME280;1680;48.106;11.708;2023-07-20T00:48:55;95312.16;;;22.30;53.75
1832;BME280;1680;48.106;11.708;2023-07-20T00:51:23;95304.16;;;22.30;54.04
1832;BME280;1680;48.106;11.708;2023-07-20T00:53:51;95302.84;;;22.27;54.78
1832;BME280;1680;48.106;11.708;2023-07-20T00:56:19;95318.88;;;22.54;53.42
1832;BME280;1680;48.106;11.708;2023-07-20T00:58:46;95313.56;;;22.41;54.83
1832;BME280;1680;48.106;11.708;2023-07-20T01:01:14;95316.66;;;22.56;53.83
1832;BME280;1680;48.106;11.708;2023-07-20T01:03:42;95310.94;;;22.49;54.37
1832;BME280;1680;48.106;11.708;2023-07-20T01:06:16;95308.19;;;22.54;54.03
1832;BME280;1680;48.106;11.708;2023-07-20T01:08:55;95316.72;;;22.43;55.44
1832;BME280;1680;48.106;11.708;2023-07-20T01:11:37;95331.63;;;22.57;55.35
1832;BME280;1680;48.106;11.708;2023-07-20T01:14:06;95325.41;;;22.48;56.58
1832;BME280;1680;48.106;11.708;2023-07-20T01:16:34;95325.59;;;22.52;58.16
1832;BME280;1680;48.106;11.708;2023-07-20T01:19:03;95311.19;;;22.39;58.56
1832;BME280;1680;48.106;11.708;2023-07-20T01:21:42;95315.88;;;22.55;59.67
1832;BME280;1680;48.106;11.708;2023-07-20T01:24:32;95313.25;;;22.29;59.76
1832;BME280;1680;48.106;11.708;2023-07-20T01:27:26;95309.78;;;22.28;60.93
1832;BME280;1680;48.106;11.708;2023-07-20T01:30:19;95313.34;;;22.24;61.63
1832;BME280;1680;48.106;11.708;2023-07-20T01:32:55;95309.69;;;22.20;62.06
1832;BME280;1680;48.106;11.708;2023-07-20T01:35:23;95312.56;;;22.23;58.95
1832;BME280;1680;48.106;11.708;2023-07-20T01:37:53;95311.31;;;22.07;59.89
1832;BME280;1680;48.106;11.708;2023-07-20T01:40:22;95310.09;;;22.27;58.72
1832;BME280;1680;48.106;11.708;2023-07-20T01:42:50;95313.75;;;22.17;60.14
1832;BME280;1680;48.106;11.708;2023-07-20T01:45:19;95326.13;;;22.13;58.49
1832;BME280;1680;48.106;11.708;2023-07-20T01:47:46;95318.09;;;22.13;59.12
1832;BME280;1680;48.106;11.708;2023-07-20T01:50:14;95314.53;;;22.18;59.38
1832;BME280;1680;48.106;11.708;2023-07-20T01:52:42;95315.16;;;22.15;58.15
1832;BME280;1680;48.106;11.708;2023-07-20T01:55:09;95320.88;;;22.35;58.47
1832;BME280;1680;48.106;11.708;2023-07-20T01:57:37;95319.09;;;22.17;59.55
1832;BME280;1680;48.106;11.708;2023-07-20T02:00:06;95314.63;;;22.26;59.36
1832;BME280;1680;48.106;11.708;2023-07-20T02:02:34;95320.59;;;22.23;59.08
1832;BME280;1680;48.106;11.708;2023-07-20T02:05:01;95317.03;;;22.14;59.78
1832;BME280;1680;48.106;11.708;2023-07-20T02:07:30;95330.81;;;21.94;60.48
1832;BME280;1680;48.106;11.708;2023-07-20T02:09:57;95324.97;;;21.92;61.07
1832;BME280;1680;48.106;11.708;2023-07-20T02:12:24;95334.25;;;21.81;59.90
1832;BME280;1680;48.106;11.708;2023-07-20T02:14:52;95334.34;;;21.90;61.07
1832;BME280;1680;48.106;11.708;2023-07-20T02:17:19;95329.81;;;21.90;61.13
1832;BME280;1680;48.106;11.708;2023-07-20T02:19:46;95328.91;;;21.95;61.46
1832;BME280;1680;48.106;11.708;2023-07-20T02:22:15;95330.50;;;21.82;62.07
1832;BME280;1680;48.106;11.708;2023-07-20T02:24:44;95324.06;;;21.83;62.61
1832;BME280;1680;48.106;11.708;2023-07-20T02:27:11;95334.16;;;21.73;62.82
1832;BME280;1680;48.106;11.708;2023-07-20T02:29:41;95321.09;;;21.71;63.76
1832;BME280;1680;48.106;11.708;2023-07-20T02:32:08;95322.59;;;21.77;63.32
1832;BME280;1680;48.106;11.708;2023-07-20T02:34:36;95323.09;;;21.79;63.24
1832;BME280;1680;48.106;11.708;2023-07-20T02:37:04;95323.84;;;21.66;63.59
1832;BME280;1680;48.106;11.708;2023-07-20T02:39:31;95348.31;;;21.73;63.64
1832;BME280;1680;48.106;11.708;2023-07-20T02:42:00;95319.53;;;21.70;64.13
1832;BME280;1680;48.106;11.708;2023-07-20T02:44:27;95312.09;;;21.67;63.68
1832;BME280;1680;48.106;11.708;2023-07-20T02:46:55;95315.97;;;21.61;63.91
1832;BME280;1680;48.106;11.708;2023-07-20T02:49:22;95317.31;;;21.59;63.93
1832;BME280;1680;48.106;11.708;2023-07-20T02:51:50;95321.09;;;21.58;63.94
1832;BME280;1680;48.106;11.708;2023-07-20T02:54:17;95322.84;;;21.49;64.71
1832;BME280;1680;48.106;11.708;2023-07-20T02:56:44;95326.09;;;21.46;63.57
1832;BME280;1680;48.106;11.708;2023-07-20T02:59:13;95319.47;;;21.44;64.00
1832;BME280;1680;48.106;11.708;2023-07-20T03:01:40;95331.31;;;21.38;64.66
1832;BME280;1680;48.106;11.708;2023-07-20T03:04:08;95345.16;;;21.40;64.70
1832;BME280;1680;48.106;11.708;2023-07-20T03:06:36;95358.22;;;21.41;64.33
1832;BME280;1680;48.106;11.708;2023-07-20T03:09:04;95368.00;;;21.46;64.93
1832;BME280;1680;48.106;11.708;2023-07-20T03:11:32;95370.94;;;21.44;69.79
1832;BME280;1680;48.106;11.708;2023-07-20T03:14:00;95340.97;;;21.20;74.96
1832;BME280;1680;48.106;11.708;2023-07-20T03:16:28;95346.00;;;21.22;75.52
1832;BME280;1680;48.106;11.708;2023-07-20T03:18:58;95360.19;;;20.85;77.42
1832;BME280;1680;48.106;11.708;2023-07-20T03:21:26;95370.44;;;20.78;79.64
1832;BME280;1680;48.106;11.708;2023-07-20T03:23:54;95359.88;;;20.50;79.95
1832;BME280;1680;48.106;11.708;2023-07-20T03:26:21;95365.22;;;20.50;81.39
1832;BME280;1680;48.106;11.708;2023-07-20T03:28:48;95368.03;;;20.40;84.72
1832;BME280;1680;48.106;11.708;2023-07-20T03:31:16;95358.66;;;20.24;86.44
1832;BME280;1680;48.106;11.708;2023-07-20T03:33:44;95380.38;;;20.31;87.45
1832;BME280;1680;48.106;11.708;2023-07-20T03:36:11;95380.22;;;20.23;91.03
1832;BME280;1680;48.106;11.708;2023-07-20T03:38:39;95392.88;;;20.36;90.06
1832;BME280;1680;48.106;11.708;2023-07-20T03:41:06;95401.56;;;19.99;91.55
1832;BME280;1680;48.106;11.708;2023-07-20T03:43:34;95395.66;;;20.02;91.39
1832;BME280;1680;48.106;11.708;2023-07-20T03:46:01;95397.19;;;19.80;90.50
1832;BME280;1680;48.106;11.708;2023-07-20T03:48:32;95392.94;;;19.55;97.65
1832;BME280;1680;48.106;11.708;2023-07-20T03:51:01;95398.88;;;19.48;99.11
1832;BME280;1680;48.106;11.708;2023-07-20T03:53:28;95399.94;;;19.47;100.00
1832;BME280;1680;48.106;11.708;2023-07-20T03:55:55;95396.31;;;19.38;99.24
1832;BME280;1680;48.106;11.708;2023-07-20T03:58:23;95389.31;;;19.47;100.00
1832;BME280;1680;48.106;11.708;2023-07-20T04:00:51;95398.13;;;19.42;100.00
1832;BME280;1680;48.106;11.708;2023-07-20T04:03:18;95397.81;;;19.49;100.00
1832;BME280;1680;48.106;11.708;2023-07-20T04:05:46;95364.16;;;19.01;100.00
1832;BME280;1680;48.106;11.708;2023-07-20T04:08:14;95396.34;;;19.33;100.00
1832;BME280;1680;48.106;11.708;2023-07-20T04:10:43;95405.63;;;19.35;100.00
1832;BME280;1680;48.106;11.708;2023-07-20T04:13:11;95411.00;;;19.30;100.00
1832;BME280;1680;48.106;11.708;2023-07-20T04:15:38;95412.06;;;19.29;100.00
1832;BME280;1680;48.106;11.708;2023-07-20T04:18:05;95405.09;;;19.33;100.00
1832;BME280;1680;48.106;11.708;2023-07-20T04:20:33;95397.75;;;19.25;100.00
1832;BME280;1680;48.106;11.708;2023-07-20T04:23:00;95401.63;;;19.38;100.00
1832;BME280;1680;48.106;11.708;2023-07-20T04:25:28;95398.50;;;19.31;100.00
1832;BME280;1680;48.106;11.708;2023-07-20T04:28:05;95398.53;;;19.26;100.00
1832;BME280;1680;48.106;11.708;2023-07-20T04:30:34;95396.44;;;19.23;100.00
1832;BME280;1680;48.106;11.708;2023-07-20T04:33:02;95403.84;;;19.26;100.00
1832;BME280;1680;48.106;11.708;2023-07-20T04:35:49;95401.47;;;19.24;100.00
1832;BME280;1680;48.106;11.708;2023-07-20T04:38:17;95398.78;;;19.29;100.00
1832;BME280;1680;48.106;11.708;2023-07-20T04:40:47;95403.03;;;19.30;100.00
1832;BME280;1680;48.106;11.708;2023-07-20T04:43:14;95399.13;;;19.18;100.00
1832;BME280;1680;48.106;11.708;2023-07-20T04:45:42;95409.97;;;19.26;100.00
1832;BME280;1680;48.106;11.708;2023-07-20T04:48:10;95408.38;;;19.25;100.00
1832;BME280;1680;48.106;11.708;2023-07-20T04:50:38;95404.31;;;19.33;100.00
1832;BME280;1680;48.106;11.708;2023-07-20T04:53:05;95410.13;;;19.40;100.00
1832;BME280;1680;48.106;11.708;2023-07-20T04:55:32;95408.47;;;19.44;100.00
1832;BME280;1680;48.106;11.708;2023-07-20T04:58:00;95411.13;;;19.44;100.00
1832;BME280;1680;48.106;11.708;2023-07-20T05:00:28;95417.34;;;19.34;100.00
1832;BME280;1680;48.106;11.708;2023-07-20T05:02:55;95414.78;;;19.52;100.00
1832;BME280;1680;48.106;11.708;2023-07-20T05:05:22;95411.19;;;19.39;100.00
1832;BME280;1680;48.106;11.708;2023-07-20T05:07:49;95398.97;;;19.38;100.00
1832;BME280;1680;48.106;11.708;2023-07-20T05:10:17;95418.97;;;19.58;100.00
1832;BME280;1680;48.106;11.708;2023-07-20T05:12:44;95431.22;;;19.59;100.00
1832;BME280;1680;48.106;11.708;2023-07-20T05:15:13;95426.00;;;19.50;100.00
1832;BME280;1680;48.106;11.708;2023-07-20T05:17:40;95436.13;;;19.48;100.00
1832;BME280;1680;48.106;11.708;2023-07-20T05:20:08;95426.00;;;19.50;100.00
1832;BME280;1680;48.106;11.708;2023-07-20T05:22:37;95425.88;;;19.59;100.00
1832;BME280;1680;48.106;11.708;2023-07-20T05:25:06;95412.81;;;19.63;100.00
1832;BME280;1680;48.106;11.708;2023-07-20T05:27:35;95433.88;;;19.88;99.54
1832;BME280;1680;48.106;11.708;2023-07-20T05:30:03;95430.97;;;19.84;98.44
1832;BME280;1680;48.106;11.708;2023-07-20T05:32:34;95426.16;;;19.86;99.54
1832;BME280;1680;48.106;11.708;2023-07-20T05:35:01;95417.16;;;19.82;100.00
1832;BME280;1680;48.106;11.708;2023-07-20T05:37:29;95426.16;;;19.86;100.00
1832;BME280;1680;48.106;11.708;2023-07-20T05:39:57;95426.63;;;19.93;98.35
1832;BME280;1680;48.106;11.708;2023-07-20T05:42:24;95431.97;;;19.88;98.35
1832;BME280;1680;48.106;11.708;2023-07-20T05:44:52;95430.47;;;19.82;99.19
1832;BME280;1680;48.106;11.708;2023-07-20T05:47:20;95435.69;;;19.92;97.42
1832;BME280;1680;48.106;11.708;2023-07-20T05:49:49;95436.41;;;20.03;97.01
1832;BME280;1680;48.106;11.708;2023-07-20T05:52:16;95434.25;;;20.05;99.19
1832;BME280;1680;48.106;11.708;2023-07-20T05:54:43;95433.66;;;20.08;99.21
1832;BME280;1680;48.106;11.708;2023-07-20T05:57:11;95431.06;;;20.26;95.80
1832;BME280;1680;48.106;11.708;2023-07-20T05:59:39;95432.66;;;20.27;96.49
1832;BME280;1680;48.106;11.708;2023-07-20T06:02:09;95417.25;;;20.24;95.17
1832;BME280;1680;48.106;11.708;2023-07-20T06:04:38;95440.00;;;20.35;91.96
1832;BME280;1680;48.106;11.708;2023-07-20T06:07:07;95440.56;;;20.32;91.04
1832;BME280;1680;48.106;11.708;2023-07-20T06:09:35;95444.72;;;20.43;93.50
1832;BME280;1680;48.106;11.708;2023-07-20T06:12:02;95441.41;;;20.51;90.97
1832;BME280;1680;48.106;11.708;2023-07-20T06:14:30;95413.72;;;20.29;92.77
1832;BME280;1680;48.106;11.708;2023-07-20T06:16:57;95444.38;;;20.50;92.44
1832;BME280;1680;48.106;11.708;2023-07-20T06:19:25;95450.81;;;20.67;91.54
1832;BME280;1680;48.106;11.708;2023-07-20T06:21:52;95436.03;;;20.74;90.58
1832;BME280;1680;48.106;11.708;2023-07-20T06:24:21;95434.63;;;20.82;91.08
1832;BME280;1680;48.106;11.708;2023-07-20T06:26:48;95429.81;;;20.84;88.95
1832;BME280;1680;48.106;11.708;2023-07-20T06:29:15;95436.72;;;21.03;88.06
1832;BME280;1680;48.106;11.708;2023-07-20T06:31:45;95437.19;;;21.24;85.77
1832;BME280;1680;48.106;11.708;2023-07-20T06:34:12;95437.94;;;21.11;80.39
1832;BME280;1680;48.106;11.708;2023-07-20T06:36:39;95442.75;;;21.09;80.96
1832;BME280;1680;48.106;11.708;2023-07-20T06:39:06;95446.44;;;21.13;77.69
1832;BME280;1680;48.106;11.708;2023-07-20T06:41:35;95442.69;;;21.14;75.20
1832;BME280;1680;48.106;11.708;2023-07-20T06:44:02;95445.59;;;20.99;79.86
1832;BME280;1680;48.106;11.708;2023-07-20T06:46:30;95438.16;;;21.14;80.08
1832;BME280;1680;48.106;11.708;2023-07-20T06:48:57;95434.19;;;21.12;76.88
1832;BME280;1680;48.106;11.708;2023-07-20T06:51:24;95442.63;;;21.19;80.08
1832;BME280;1680;48.106;11.708;2023-07-20T06:53:52;95445.13;;;21.29;80.22
1832;BME280;1680;48.106;11.708;2023-07-20T06:56:19;95442.97;;;21.31;80.15
1832;BME280;1680;48.106;11.708;2023-07-20T06:58:48;95429.75;;;21.39;79.24
1832;BME280;1680;48.106;11.708;2023-07-20T07:01:15;95429.78;;;21.52;78.93
1832;BME280;1680;48.106;11.708;2023-07-20T07:03:42;95441.53;;;21.51;78.13
1832;BME280;1680;48.106;11.708;2023-07-20T07:06:10;95443.53;;;21.64;76.70
1832;BME280;1680;48.106;11.708;2023-07-20T07:08:37;95441.19;;;21.90;74.08
1832;BME280;1680;48.106;11.708;2023-07-20T07:11:05;95438.44;;;22.08;74.20
1832;BME280;1680;48.106;11.708;2023-07-20T07:13:32;95434.13;;;22.39;70.68
1832;BME280;1680;48.106;11.708;2023-07-20T07:16:01;95431.53;;;22.48;70.42
1832;BME280;1680;48.106;11.708;2023-07-20T07:18:28;95439.75;;;22.24;69.96
1832;BME280;1680;48.106;11.708;2023-07-20T07:20:55;95448.47;;;22.43;69.19
1832;BME280;1680;48.106;11.708;2023-07-20T07:23:22;95436.88;;;22.48;68.85
1832;BME280;1680;48.106;11.708;2023-07-20T07:25:49;95439.75;;;22.51;64.05
1832;BME280;1680;48.106;11.708;2023-07-20T07:28:16;95435.09;;;22.43;63.78
1832;BME280;1680;48.106;11.708;2023-07-20T07:30:44;95440.41;;;22.70;66.78
1832;BME280;1680;48.106;11.708;2023-07-20T07:33:12;95444.84;;;22.88;65.06
1832;BME280;1680;48.106;11.708;2023-07-20T07:35:39;95425.72;;;23.08;63.73
1832;BME280;1680;48.106;11.708;2023-07-20T07:38:07;95412.22;;;23.13;63.61
1832;BME280;1680;48.106;11.708;2023-07-20T07:40:34;95437.03;;;23.49;61.58
1832;BME280;1680;48.106;11.708;2023-07-20T07:43:01;95439.34;;;23.63;59.63
1832;BME280;1680;48.106;11.708;2023-07-20T07:45:28;95442.16;;;23.80;55.60
1832;BME280;1680;48.106;11.708;2023-07-20T07:47:56;95446.75;;;23.80;54.77
1832;BME280;1680;48.106;11.708;2023-07-20T07:50:24;95449.22;;;23.76;57.31
1832;BME280;1680;48.106;11.708;2023-07-20T07:52:52;95425.38;;;23.45;55.76
1832;BME280;1680;48.106;11.708;2023-07-20T07:55:19;95437.25;;;23.52;57.79
1832;BME280;1680;48.106;11.708;2023-07-20T07:57:47;95440.31;;;23.46;57.36
1832;BME280;1680;48.106;11.708;2023-07-20T08:00:15;95445.06;;;23.70;56.07
1832;BME280;1680;48.106;11.708;2023-07-20T08:02:44;95426.94;;;23.67;55.15
1832;BME280;1680;48.106;11.708;2023-07-20T08:05:12;95449.16;;;23.90;56.70
1832;BME280;1680;48.106;11.708;2023-07-20T08:07:40;95447.59;;;23.75;49.30
1832;BME280;1680;48.106;11.708;2023-07-20T08:10:09;95449.50;;;23.53;50.07
1832;BME280;1680;48.106;11.708;2023-07-20T08:12:36;95452.84;;;23.37;49.30
1832;BME280;1680;48.106;11.708;2023-07-20T08:15:04;95448.47;;;23.19;46.50
1832;BME280;1680;48.106;11.708;2023-07-20T08:17:31;95412.91;;;22.69;48.45
1832;BME280;1680;48.106;11.708;2023-07-20T08:19:58;95456.78;;;23.17;48.34
1832;BME280;1680;48.106;11.708;2023-07-20T08:22:26;95453.75;;;22.97;49.80
1832;BME280;1680;48.106;11.708;2023-07-20T08:24:54;95451.72;;;23.51;54.49
1832;BME280;1680;48.106;11.708;2023-07-20T08:27:22;95445.44;;;23.77;52.97
1832;BME280;1680;48.106;11.708;2023-07-20T08:29:49;95457.03;;;23.86;49.46
1832;BME280;1680;48.106;11.708;2023-07-20T08:32:16;95456.25;;;23.94;45.06
1832;BME280;1680;48.106;11.708;2023-07-20T08:34:43;95458.53;;;23.79;45.41
1832;BME280;1680;48.106;11.708;2023-07-20T08:37:10;95465.94;;;24.04;47.64
1832;BME280;1680;48.106;11.708;2023-07-20T08:39:38;95459.38;;;23.66;44.90
1832;BME280;1680;48.106;11.708;2023-07-20T08:42:07;95456.69;;;23.44;46.55
1832;BME280;1680;48.106;11.708;2023-07-20T08:44:36;95456.81;;;23.39;49.40
1832;BME280;1680;48.106;11.708;2023-07-20T08:47:06;95452.66;;;23.55;51.50
1832;BME280;1680;48.106;11.708;2023-07-20T08:49:34;95453.91;;;23.93;52.70
1832;BME280;1680;48.106;11.708;2023-07-20T08:52:01;95452.69;;;24.38;48.47
1832;BME280;1680;48.106;11.708;2023-07-20T08:54:31;95451.81;;;24.51;49.76
1832;BME280;1680;48.106;11.708;2023-07-20T08:57:01;95453.44;;;24.68;49.79
1832;BME280;1680;48.106;11.708;2023-07-20T08:59:31;95451.44;;;24.91;45.99
1832;BME280;1680;48.106;11.708;2023-07-20T09:01:59;95432.78;;;24.30;47.04
1832;BME280;1680;48.106;11.708;2023-07-20T09:04:27;95459.31;;;24.40;46.63
1832;BME280;1680;48.106;11.708;2023-07-20T09:06:56;95445.47;;;24.08;46.18
1832;BME280;1680;48.106;11.708;2023-07-20T09:09:23;95457.56;;;24.05;47.46
1832;BME280;1680;48.106;11.708;2023-07-20T09:11:51;95418.91;;;23.98;46.48
1832;BME280;1680;48.106;11.708;2023-07-20T09:14:18;95456.84;;;24.13;46.27
1832;BME280;1680;48.106;11.708;2023-07-20T09:16:50;95453.03;;;24.06;49.13
1832;BME280;1680;48.106;11.708;2023-07-20T09:19:17;95457.50;;;24.19;48.07
1832;BME280;1680;48.106;11.708;2023-07-20T09:25:11;95442.03;;;24.46;45.96
1832;BME280;1680;48.106;11.708;2023-07-20T09:27:40;95441.91;;;24.59;49.34
1832;BME280;1680;48.106;11.708;2023-07-20T09:30:08;95440.53;;;24.79;45.96
1832;BME280;1680;48.106;11.708;2023-07-20T09:32:40;95445.91;;;24.79;43.93
1832;BME280;1680;48.106;11.708;2023-07-20T09:35:12;95438.66;;;24.88;43.08
1832;BME280;1680;48.106;11.708;2023-07-20T09:37:46;95439.63;;;24.92;42.45
1832;BME280;1680;48.106;11.708;2023-07-20T09:40:15;95429.53;;;25.06;42.79
1832;BME280;1680;48.106;11.708;2023-07-20T09:42:43;95434.56;;;25.07;41.84
1832;BME280;1680;48.106;11.708;2023-07-20T09:45:11;95444.25;;;25.25;43.48
1832;BME280;1680;48.106;11.708;2023-07-20T09:47:40;95427.66;;;25.32;40.76
1832;BME280;1680;48.106;11.708;2023-07-20T09:50:08;95427.97;;;25.13;40.13
1832;BME280;1680;48.106;11.708;2023-07-20T09:52:39;95430.00;;;24.99;42.29
1832;BME280;1680;48.106;11.708;2023-07-20T09:55:10;95437.56;;;24.89;41.35
1832;BME280;1680;48.106;11.708;2023-07-20T09:57:38;95430.94;;;24.86;42.00
1832;BME280;1680;48.106;11.708;2023-07-20T10:00:07;95427.03;;;25.18;42.54
1832;BME280;1680;48.106;11.708;2023-07-20T10:02:43;95429.06;;;25.55;43.69
1832;BME280;1680;48.106;11.708;2023-07-20T10:05:12;95430.31;;;25.74;40.73
1832;BME280;1680;48.106;11.708;2023-07-20T10:07:44;95436.66;;;25.61;42.56
1832;BME280;1680;48.106;11.708;2023-07-20T10:10:14;95431.44;;;25.48;40.89
1832;BME280;1680;48.106;11.708;2023-07-20T10:12:44;95432.38;;;25.68;41.31
1832;BME280;1680;48.106;11.708;2023-07-20T10:15:15;95424.13;;;25.82;42.73
1832;BME280;1680;48.106;11.708;2023-07-20T10:17:53;95426.84;;;25.56;40.82
1832;BME280;1680;48.106;11.708;2023-07-20T10:20:24;95437.59;;;25.48;40.84
1832;BME280;1680;48.106;11.708;2023-07-20T10:22:53;95414.84;;;25.54;41.99
1832;BME280;1680;48.106;11.708;2023-07-20T10:25:22;95415.31;;;25.81;43.07
1832;BME280;1680;48.106;11.708;2023-07-20T10:27:50;95410.16;;;26.05;40.46
1832;BME280;1680;48.106;11.708;2023-07-20T10:30:18;95400.47;;;26.13;40.71
1832;BME280;1680;48.106;11.708;2023-07-20T10:32:48;95414.28;;;26.03;39.94
1832;BME280;1680;48.106;11.708;2023-07-20T10:35:17;95414.53;;;26.18;41.00
1832;BME280;1680;48.106;11.708;2023-07-20T10:37:52;95408.28;;;26.06;38.61
1832;BME280;1680;48.106;11.708;2023-07-20T10:40:27;95410.31;;;26.00;40.80
1832;BME280;1680;48.106;11.708;2023-07-20T10:42:59;95398.56;;;25.67;39.58
1832;BME280;1680;48.106;11.708;2023-07-20T10:45:42;95402.84;;;25.60;41.00
1832;BME280;1680;48.106;11.708;2023-07-20T10:48:18;95404.69;;;25.76;40.87
1832;BME280;1680;48.106;11.708;2023-07-20T10:51:10;95395.66;;;25.89;39.57
1832;BME280;1680;48.106;11.708;2023-07-20T10:53:38;95408.69;;;26.16;41.12
1832;BME280;1680;48.106;11.708;2023-07-20T10:56:06;95401.34;;;26.34;39.92
1832;BME280;1680;48.106;11.708;2023-07-20T10:58:34;95401.38;;;26.62;38.86
1832;BME280;1680;48.106;11.708;2023-07-20T11:01:03;95398.41;;;26.18;37.94
1832;BME280;1680;48.106;11.708;2023-07-20T11:03:33;95403.03;;;26.09;39.54
1832;BME280;1680;48.106;11.708;2023-07-20T11:06:33;95401.84;;;26.27;40.15
1832;BME280;1680;48.106;11.708;2023-07-20T11:09:07;95401.34;;;26.42;39.02
1832;BME280;1680;48.106;11.708;2023-07-20T11:11:37;95397.94;;;26.16;39.66
1832;BME280;1680;48.106;11.708;2023-07-20T11:14:07;95390.88;;;26.03;38.81
1832;BME280;1680;48.106;11.708;2023-07-20T11:16:37;95378.13;;;25.75;40.65
1832;BME280;1680;48.106;11.708;2023-07-20T11:19:05;95386.50;;;25.73;40.91
1832;BME280;1680;48.106;11.708;2023-07-20T11:21:37;95383.84;;;25.56;40.11
1832;BME280;1680;48.106;11.708;2023-07-20T11:24:14;95391.00;;;25.53;40.92
1832;BME280;1680;48.106;11.708;2023-07-20T11:26:45;95381.34;;;25.52;40.77
1832;BME280;1680;48.106;11.708;2023-07-20T11:29:13;95380.88;;;25.50;42.01
1832;BME280;1680;48.106;11.708;2023-07-20T11:31:42;95379.47;;;25.44;40.56
1832;BME280;1680;48.106;11.708;2023-07-20T11:34:11;95361.56;;;25.64;41.40
1832;BME280;1680;48.106;11.708;2023-07-20T11:36:39;95337.19;;;25.78;39.82
1832;BME280;1680;48.106;11.708;2023-07-20T11:39:08;95369.59;;;26.27;40.91
1832;BME280;1680;48.106;11.708;2023-07-20T11:41:38;95343.97;;;26.21;40.83
1832;BME280;1680;48.106;11.708;2023-07-20T11:44:06;95368.34;;;26.54;40.94
1832;BME280;1680;48.106;11.708;2023-07-20T11:46:38;95326.25;;;26.20;39.98
1832;BME280;1680;48.106;11.708;2023-07-20T11:49:06;95363.38;;;26.64;38.75
1832;BME280;1680;48.106;11.708;2023-07-20T11:51:34;95367.94;;;26.43;37.49
1832;BME280;1680;48.106;11.708;2023-07-20T11:54:02;95366.00;;;26.72;40.87
1832;BME280;1680;48.106;11.708;2023-07-20T11:56:30;95346.84;;;26.74;37.93
1832;BME280;1680;48.106;11.708;2023-07-20T11:58:59;95361.25;;;26.49;40.38
1832;BME280;1680;48.106;11.708;2023-07-20T12:01:27;95356.88;;;26.36;38.30
1832;BME280;1680;48.106;11.708;2023-07-20T12:03:57;95317.31;;;26.08;40.49
1832;BME280;1680;48.106;11.708;2023-07-20T12:06:24;95344.53;;;26.35;38.15
1832;BME280;1680;48.106;11.708;2023-07-20T12:08:54;95346.69;;;26.50;38.94
1832;BME280;1680;48.106;11.708;2023-07-20T12:11:34;95316.09;;;26.55;38.82
1832;BME280;1680;48.106;11.708;2023-07-20T12:14:04;95336.88;;;26.95;38.59
1832;BME280;1680;48.106;11.708;2023-07-20T12:16:33;95320.38;;;26.76;37.39
1832;BME280;1680;48.106;11.708;2023-07-20T12:19:01;95331.22;;;27.29;36.68
1832;BME280;1680;48.106;11.708;2023-07-20T12:21:29;95333.72;;;26.93;36.24
1832;BME280;1680;48.106;11.708;2023-07-20T12:23:57;95317.81;;;27.00;35.39
1832;BME280;1680;48.106;11.708;2023-07-20T12:26:25;95288.81;;;26.44;36.48
1832;BME280;1680;48.106;11.708;2023-07-20T12:28:52;95333.97;;;27.00;36.75
1832;BME280;1680;48.106;11.708;2023-07-20T12:31:22;95325.91;;;27.20;36.36
1832;BME280;1680;48.106;11.708;2023-07-20T12:33:49;95320.84;;;27.51;36.58
1832;BME280;1680;48.106;11.708;2023-07-20T12:36:17;95308.97;;;27.64;35.73
1832;BME280;1680;48.106;11.708;2023-07-20T12:38:45;95330.63;;;27.56;36.82
1832;BME280;1680;48.106;11.708;2023-07-20T12:41:12;95281.16;;;27.28;36.72
1832;BME280;1680;48.106;11.708;2023-07-20T12:43:40;95308.78;;;27.69;35.03
1832;BME280;1680;48.106;11.708;2023-07-20T12:46:07;95311.38;;;27.45;34.66
1832;BME280;1680;48.106;11.708;2023-07-20T12:48:36;95305.84;;;27.30;37.32
1832;BME280;1680;48.106;11.708;2023-07-20T12:51:05;95304.44;;;27.12;36.90
1832;BME280;1680;48.106;11.708;2023-07-20T12:53:33;95307.91;;;27.45;36.48
1832;BME280;1680;48.106;11.708;2023-07-20T12:56:00;95275.75;;;27.28;36.48
1832;BME280;1680;48.106;11.708;2023-07-20T12:58:28;95279.28;;;27.40;35.83
1832;BME280;1680;48.106;11.708;2023-07-20T13:00:55;95306.16;;;27.28;37.08
1832;BME280;1680;48.106;11.708;2023-07-20T13:03:22;95290.59;;;27.34;36.76
1832;BME280;1680;48.106;11.708;2023-07-20T13:05:51;95308.50;;;27.50;36.48
1832;BME280;1680;48.106;11.708;2023-07-20T13:08:18;95292.63;;;27.69;35.35
1832;BME280;1680;48.106;11.708;2023-07-20T13:10:45;95299.28;;;28.07;35.04
1832;BME280;1680;48.106;11.708;2023-07-20T13:13:13;95281.50;;;27.94;34.46
1832;BME280;1680;48.106;11.708;2023-07-20T13:15:41;95293.63;;;27.76;35.63
1832;BME280;1680;48.106;11.708;2023-07-20T13:18:09;95287.13;;;27.77;35.20
1832;BME280;1680;48.106;11.708;2023-07-20T13:20:36;95280.16;;;28.12;35.59
1832;BME280;1680;48.106;11.708;2023-07-20T13:23:05;95232.97;;;27.94;36.38